createdAt,value
2023-01-26T00:00:09.244Z,51.259438
2023-01-26T00:01:08.765Z,51.259441
2023-01-26T00:02:08.776Z,51.259396
2023-01-26T00:03:08.726Z,51.259399
2023-01-26T00:04:08.785Z,51.259399
2023-01-26T00:05:08.736Z,51.259399
2023-01-26T00:06:08.716Z,51.259586
2023-01-26T00:07:08.682Z,51.259533
2023-01-26T00:08:08.681Z,51.259407
2023-01-26T00:09:08.665Z,51.259525
2023-01-26T00:10:08.802Z,51.259525
2023-01-26T00:11:08.667Z,51.259510
2023-01-26T00:12:08.637Z,51.259502
2023-01-26T00:13:08.627Z,51.259518
2023-01-26T00:14:08.617Z,51.259449
2023-01-26T00:15:08.610Z,51.259472
2023-01-26T00:16:08.666Z,51.259575
2023-01-26T00:17:08.585Z,51.259720
2023-01-26T00:18:08.595Z,51.259720
2023-01-26T00:19:08.586Z,51.259598
2023-01-26T00:20:08.715Z,51.259544
2023-01-26T00:21:09.569Z,51.259472
2023-01-26T00:22:08.539Z,51.259579
2023-01-26T00:23:08.603Z,51.259586
2023-01-26T00:24:08.566Z,51.259560
2023-01-26T00:25:08.557Z,51.259457
2023-01-26T00:26:08.518Z,51.259426
2023-01-26T00:27:08.524Z,51.259495
2023-01-26T00:28:08.487Z,51.259495
2023-01-26T00:29:08.483Z,51.259487
2023-01-26T00:30:08.763Z,51.259491
2023-01-26T00:31:08.509Z,51.259552
2023-01-26T00:32:08.511Z,51.259563
2023-01-26T00:33:08.441Z,51.259521
2023-01-26T00:34:08.428Z,51.259529
2023-01-26T00:35:08.439Z,51.259594
2023-01-26T00:36:08.430Z,51.259609
2023-01-26T00:37:08.392Z,51.259537
2023-01-26T00:38:08.377Z,51.259575
2023-01-26T00:39:08.376Z,51.259563
2023-01-26T00:40:08.559Z,51.259552
2023-01-26T00:41:08.390Z,51.259617
2023-01-26T00:42:08.345Z,51.259666
2023-01-26T00:43:08.339Z,51.259575
2023-01-26T00:44:08.413Z,51.259552
2023-01-26T00:45:08.331Z,51.259605
2023-01-26T00:46:08.306Z,51.259373
2023-01-26T00:47:08.315Z,51.258968
2023-01-26T00:48:08.292Z,51.259224
2023-01-26T00:49:08.318Z,51.259499
2023-01-26T00:50:08.461Z,51.259853
2023-01-26T00:51:08.263Z,51.259628
2023-01-26T00:52:08.266Z,51.259579
2023-01-26T00:53:08.234Z,51.259144
2023-01-26T00:54:08.239Z,51.259033
2023-01-26T00:55:08.224Z,51.258980
2023-01-26T00:56:08.225Z,51.259075
2023-01-26T00:57:08.238Z,51.259296
2023-01-26T00:58:08.208Z,51.259491
2023-01-26T00:59:08.199Z,51.259357
2023-01-26T01:00:08.415Z,51.259636
2023-01-26T01:01:08.185Z,51.259712
2023-01-26T01:02:08.210Z,51.259499
2023-01-26T01:03:08.139Z,51.259392
2023-01-26T01:04:08.130Z,51.259365
2023-01-26T01:05:08.118Z,51.259193
2023-01-26T01:06:08.171Z,51.259216
2023-01-26T01:07:08.133Z,51.259296
2023-01-26T01:08:08.089Z,51.259373
2023-01-26T01:09:08.079Z,51.259460
2023-01-26T01:10:08.089Z,51.259483
2023-01-26T01:11:08.068Z,51.259422
2023-01-26T01:12:08.068Z,51.259399
2023-01-26T01:13:08.042Z,51.259323
2023-01-26T01:14:08.035Z,51.259323
2023-01-26T01:15:08.027Z,51.259449
2023-01-26T01:16:08.109Z,51.259560
2023-01-26T01:17:08.023Z,51.259491
2023-01-26T01:18:07.981Z,51.259380
2023-01-26T01:19:07.991Z,51.259418
2023-01-26T01:20:08.169Z,51.259441
2023-01-26T01:21:07.973Z,51.259441
2023-01-26T01:22:07.965Z,51.259510
2023-01-26T01:23:07.973Z,51.259510
2023-01-26T01:24:08.030Z,51.259460
2023-01-26T01:25:07.925Z,51.259396
2023-01-26T01:26:07.907Z,51.259434
2023-01-26T01:27:07.928Z,51.259579
2023-01-26T01:28:07.892Z,51.259571
2023-01-26T01:29:07.884Z,51.259583
2023-01-26T01:30:07.911Z,51.259605
2023-01-26T01:31:08.066Z,51.259529
2023-01-26T01:32:07.928Z,51.259514
2023-01-26T01:33:07.879Z,51.259460
2023-01-26T01:34:07.836Z,51.259605
2023-01-26T01:35:07.851Z,51.259583
2023-01-26T01:36:07.818Z,51.259567
2023-01-26T01:37:07.824Z,51.259541
2023-01-26T01:38:07.797Z,51.259605
2023-01-26T01:39:07.788Z,51.259624
2023-01-26T01:40:07.813Z,51.259544
2023-01-26T01:41:07.768Z,51.259590
2023-01-26T01:42:07.781Z,51.259602
2023-01-26T01:43:07.746Z,51.259548
2023-01-26T01:44:07.735Z,51.259525
2023-01-26T01:45:07.721Z,51.259457
2023-01-26T01:46:07.717Z,51.259487
2023-01-26T01:47:07.737Z,51.259411
2023-01-26T01:48:07.703Z,51.259445
2023-01-26T01:49:07.688Z,51.259441
2023-01-26T01:50:07.705Z,51.259594
2023-01-26T01:51:07.674Z,51.259659
2023-01-26T01:52:07.682Z,51.259621
2023-01-26T01:53:07.649Z,51.259598
2023-01-26T01:54:07.644Z,51.259552
2023-01-26T01:55:07.652Z,51.259548
2023-01-26T01:56:07.615Z,51.259525
2023-01-26T01:57:07.618Z,51.259686
2023-01-26T01:58:07.601Z,51.259621
2023-01-26T01:59:07.597Z,51.259548
2023-01-26T02:00:07.595Z,51.259632
2023-01-26T02:01:07.611Z,51.259575
2023-01-26T02:02:07.633Z,51.259624
2023-01-26T02:03:07.566Z,51.259575
2023-01-26T02:04:07.546Z,51.259464
2023-01-26T02:05:07.529Z,51.259537
2023-01-26T02:06:07.538Z,51.259560
2023-01-26T02:07:07.538Z,51.259720
2023-01-26T02:08:07.513Z,51.259796
2023-01-26T02:09:07.495Z,51.259624
2023-01-26T02:10:07.514Z,51.259563
2023-01-26T02:11:07.495Z,51.259697
2023-01-26T02:12:07.523Z,51.259598
2023-01-26T02:13:07.457Z,51.259598
2023-01-26T02:14:07.456Z,51.259483
2023-01-26T02:15:07.448Z,51.259655
2023-01-26T02:16:07.482Z,51.259556
2023-01-26T02:17:07.442Z,51.259525
2023-01-26T02:18:07.411Z,51.259521
2023-01-26T02:19:07.402Z,51.259426
2023-01-26T02:20:07.497Z,51.259396
2023-01-26T02:21:07.378Z,51.259411
2023-01-26T02:22:07.388Z,51.259552
2023-01-26T02:23:07.357Z,51.259605
2023-01-26T02:24:07.440Z,51.259602
2023-01-26T02:25:07.341Z,51.259598
2023-01-26T02:26:07.332Z,51.259521
2023-01-26T02:27:07.365Z,51.259659
2023-01-26T02:28:07.312Z,51.259560
2023-01-26T02:29:07.300Z,51.259640
2023-01-26T02:30:07.320Z,51.259453
2023-01-26T02:31:07.413Z,51.259583
2023-01-26T02:32:07.371Z,51.259609
2023-01-26T02:33:07.250Z,51.259670
2023-01-26T02:34:07.267Z,51.259571
2023-01-26T02:35:07.265Z,51.259632
2023-01-26T02:36:07.237Z,51.259602
2023-01-26T02:37:07.226Z,51.259705
2023-01-26T02:38:07.214Z,51.259884
2023-01-26T02:39:07.203Z,51.259766
2023-01-26T02:40:07.192Z,51.259598
2023-01-26T02:41:07.261Z,51.259686
2023-01-26T02:42:07.184Z,51.259594
2023-01-26T02:43:07.157Z,51.259674
2023-01-26T02:44:07.147Z,51.259640
2023-01-26T02:45:07.155Z,51.259632
2023-01-26T02:46:07.185Z,51.259712
2023-01-26T02:47:07.139Z,51.259628
2023-01-26T02:48:07.150Z,51.259617
2023-01-26T02:49:07.110Z,51.259495
2023-01-26T02:50:07.092Z,51.259602
2023-01-26T02:51:07.086Z,51.259613
2023-01-26T02:52:07.112Z,51.259590
2023-01-26T02:53:07.061Z,51.259579
2023-01-26T02:54:07.054Z,51.259552
2023-01-26T02:55:07.065Z,51.259605
2023-01-26T02:56:07.044Z,51.259586
2023-01-26T02:57:07.054Z,51.259590
2023-01-26T02:58:07.017Z,51.259605
2023-01-26T02:59:07.013Z,51.259552
2023-01-26T03:00:06.997Z,51.259579
2023-01-26T03:01:07.074Z,51.259613
2023-01-26T03:02:07.010Z,51.259609
2023-01-26T03:03:06.960Z,51.259560
2023-01-26T03:04:06.968Z,51.259556
2023-01-26T03:05:06.952Z,51.259560
2023-01-26T03:06:06.943Z,51.259586
2023-01-26T03:07:06.952Z,51.259579
2023-01-26T03:08:06.915Z,51.259598
2023-01-26T03:09:06.913Z,51.259567
2023-01-26T03:10:06.898Z,51.259598
2023-01-26T03:11:06.894Z,51.259655
2023-01-26T03:12:06.897Z,51.259556
2023-01-26T03:13:06.873Z,51.259552
2023-01-26T03:14:06.861Z,51.259541
2023-01-26T03:15:06.846Z,51.259552
2023-01-26T03:16:07.207Z,51.259556
2023-01-26T03:17:06.871Z,51.259521
2023-01-26T03:18:06.828Z,51.259541
2023-01-26T03:19:06.878Z,51.259556
2023-01-26T03:20:06.818Z,51.259548
2023-01-26T03:21:06.784Z,51.259514
2023-01-26T03:22:06.782Z,51.259521
2023-01-26T03:23:06.788Z,51.259541
2023-01-26T03:24:06.856Z,51.259594
2023-01-26T03:25:06.756Z,51.259567
2023-01-26T03:26:06.754Z,51.259563
2023-01-26T03:27:06.734Z,51.259579
2023-01-26T03:28:06.723Z,51.259537
2023-01-26T03:29:06.717Z,51.259529
2023-01-26T03:30:06.749Z,51.259533
2023-01-26T03:31:06.737Z,51.259521
2023-01-26T03:32:06.674Z,51.259537
2023-01-26T03:33:06.681Z,51.259514
2023-01-26T03:34:06.665Z,51.259594
2023-01-26T03:35:06.675Z,51.259552
2023-01-26T03:36:06.644Z,51.259579
2023-01-26T03:37:06.650Z,51.259636
2023-01-26T03:38:06.638Z,51.259605
2023-01-26T03:39:06.619Z,51.259487
2023-01-26T03:40:06.597Z,51.259567
2023-01-26T03:41:06.594Z,51.259575
2023-01-26T03:42:06.590Z,51.259541
2023-01-26T03:43:06.603Z,51.259632
2023-01-26T03:44:06.567Z,51.259598
2023-01-26T03:45:06.567Z,51.259541
2023-01-26T03:46:06.550Z,51.259544
2023-01-26T03:47:06.546Z,51.259510
2023-01-26T03:48:06.554Z,51.259563
2023-01-26T03:49:06.523Z,51.259560
2023-01-26T03:50:06.528Z,51.259651
2023-01-26T03:51:06.507Z,51.259567
2023-01-26T03:52:06.498Z,51.259647
2023-01-26T03:53:06.508Z,51.259605
2023-01-26T03:54:06.485Z,51.259579
2023-01-26T03:55:06.478Z,51.259495
2023-01-26T03:56:06.501Z,51.259586
2023-01-26T03:57:06.441Z,51.259583
2023-01-26T03:58:07.462Z,51.259571
2023-01-26T03:59:06.432Z,51.259480
2023-01-26T04:00:06.414Z,51.259502
2023-01-26T04:01:06.466Z,51.259521
2023-01-26T04:02:06.448Z,51.259583
2023-01-26T04:03:06.415Z,51.259563
2023-01-26T04:04:06.380Z,51.259586
2023-01-26T04:05:06.376Z,51.259678
2023-01-26T04:06:15.646Z,51.259621
2023-01-26T04:07:07.392Z,51.259552
2023-01-26T04:08:06.372Z,51.259586
2023-01-26T04:09:06.339Z,51.259693
2023-01-26T04:10:06.344Z,51.259647
2023-01-26T04:11:06.322Z,51.259682
2023-01-26T04:12:06.295Z,51.259590
2023-01-26T04:13:06.351Z,51.259624
2023-01-26T04:14:06.297Z,51.259678
2023-01-26T04:15:06.300Z,51.259659
2023-01-26T04:16:06.370Z,51.259624
2023-01-26T04:17:06.280Z,51.259697
2023-01-26T04:18:06.272Z,51.259701
2023-01-26T04:19:06.249Z,51.259624
2023-01-26T04:20:06.223Z,51.259659
2023-01-26T04:21:06.228Z,51.259659
2023-01-26T04:22:06.240Z,51.259716
2023-01-26T04:23:06.236Z,51.259701
2023-01-26T04:24:06.234Z,51.259777
2023-01-26T04:25:06.187Z,51.259613
2023-01-26T04:26:06.184Z,51.259735
2023-01-26T04:27:06.169Z,51.259686
2023-01-26T04:28:06.173Z,51.259724
2023-01-26T04:29:06.216Z,51.259457
2023-01-26T04:30:06.139Z,51.259590
2023-01-26T04:31:06.132Z,51.259678
2023-01-26T04:32:06.118Z,51.259312
2023-01-26T04:33:06.188Z,51.259480
2023-01-26T04:34:06.106Z,51.259464
2023-01-26T04:35:06.127Z,51.259903
2023-01-26T04:36:06.104Z,51.259689
2023-01-26T04:37:06.078Z,51.259869
2023-01-26T04:38:06.083Z,51.259735
2023-01-26T04:39:06.048Z,51.259796
2023-01-26T04:40:06.052Z,51.259796
2023-01-26T04:41:06.068Z,51.259796
2023-01-26T04:42:06.033Z,51.259895
2023-01-26T04:43:06.104Z,51.259853
2023-01-26T04:44:06.010Z,51.259708
2023-01-26T04:45:06.049Z,51.259640
2023-01-26T04:46:06.052Z,51.259499
2023-01-26T04:47:05.986Z,51.259464
2023-01-26T04:48:05.993Z,51.259472
2023-01-26T04:49:05.970Z,51.259502
2023-01-26T04:50:05.964Z,51.259388
2023-01-26T04:51:05.945Z,51.259247
2023-01-26T04:52:05.938Z,51.259403
2023-01-26T04:53:05.941Z,51.259617
2023-01-26T04:54:05.926Z,51.259724
2023-01-26T04:55:05.899Z,51.259651
2023-01-26T04:56:05.894Z,51.259556
2023-01-26T04:57:05.886Z,51.259541
2023-01-26T04:58:05.899Z,51.259533
2023-01-26T04:59:05.859Z,51.259686
2023-01-26T05:00:05.867Z,51.259525
2023-01-26T05:01:05.884Z,51.259529
2023-01-26T05:02:05.850Z,51.259483
2023-01-26T05:03:05.840Z,51.259441
2023-01-26T05:04:05.912Z,51.259457
2023-01-26T05:05:05.813Z,51.259483
2023-01-26T05:06:06.540Z,51.259472
2023-01-26T05:07:05.792Z,51.259506
2023-01-26T05:08:06.812Z,51.259434
2023-01-26T05:09:05.792Z,51.259441
2023-01-26T05:10:05.818Z,51.259445
2023-01-26T05:11:05.749Z,51.259533
2023-01-26T05:12:05.751Z,51.259499
2023-01-26T05:13:05.759Z,51.259609
2023-01-26T05:14:05.745Z,51.259567
2023-01-26T05:15:05.749Z,51.259457
2023-01-26T05:16:05.722Z,51.259438
2023-01-26T05:17:05.713Z,51.259464
2023-01-26T05:18:05.706Z,51.259529
2023-01-26T05:19:05.683Z,51.259495
2023-01-26T05:20:05.675Z,51.259480
2023-01-26T05:21:05.674Z,51.259472
2023-01-26T05:22:05.705Z,51.259430
2023-01-26T05:23:05.658Z,51.259487
2023-01-26T05:24:05.734Z,51.259506
2023-01-26T05:25:05.631Z,51.259560
2023-01-26T05:26:05.618Z,51.259491
2023-01-26T05:27:05.612Z,51.259521
2023-01-26T05:28:05.631Z,51.259529
2023-01-26T05:29:05.601Z,51.259575
2023-01-26T05:30:05.584Z,51.259529
2023-01-26T05:31:05.624Z,51.259365
2023-01-26T05:32:05.567Z,51.259453
2023-01-26T05:33:05.591Z,51.259476
2023-01-26T05:34:05.550Z,51.259533
2023-01-26T05:35:05.559Z,51.259571
2023-01-26T05:36:05.544Z,51.259529
2023-01-26T05:37:05.537Z,51.259411
2023-01-26T05:38:05.534Z,51.259518
2023-01-26T05:39:05.516Z,51.259418
2023-01-26T05:40:05.496Z,51.259373
2023-01-26T05:41:05.489Z,51.259331
2023-01-26T05:42:05.477Z,51.259380
2023-01-26T05:43:05.481Z,51.259537
2023-01-26T05:44:05.481Z,51.259487
2023-01-26T05:45:05.454Z,51.259472
2023-01-26T05:46:06.061Z,51.259533
2023-01-26T05:47:05.418Z,51.259640
2023-01-26T05:48:05.439Z,51.259579
2023-01-26T05:49:05.411Z,51.259560
2023-01-26T05:50:05.434Z,51.259571
2023-01-26T05:51:05.393Z,51.259525
2023-01-26T05:52:05.387Z,51.259548
2023-01-26T05:53:05.385Z,51.259533
2023-01-26T05:54:05.369Z,51.259525
2023-01-26T05:55:05.351Z,51.259560
2023-01-26T05:56:05.383Z,51.259594
2023-01-26T05:57:05.328Z,51.259583
2023-01-26T05:58:05.348Z,51.259590
2023-01-26T05:59:05.407Z,51.259563
2023-01-26T06:00:05.298Z,51.259651
2023-01-26T06:01:05.296Z,51.259617
2023-01-26T06:02:05.307Z,51.259525
2023-01-26T06:03:05.283Z,51.259533
2023-01-26T06:04:05.308Z,51.259449
2023-01-26T06:05:05.262Z,51.259495
2023-01-26T06:06:05.252Z,51.259590
2023-01-26T06:07:05.228Z,51.259529
2023-01-26T06:08:05.247Z,51.259533
2023-01-26T06:09:05.233Z,51.259525
2023-01-26T06:10:05.216Z,51.259537
2023-01-26T06:11:05.194Z,51.259399
2023-01-26T06:12:05.192Z,51.259510
2023-01-26T06:13:05.177Z,51.259521
2023-01-26T06:14:05.189Z,51.259521
2023-01-26T06:15:05.155Z,51.259506
2023-01-26T06:16:05.145Z,51.259533
2023-01-26T06:17:05.126Z,51.259575
2023-01-26T06:18:05.138Z,51.259552
2023-01-26T06:19:05.123Z,51.259441
2023-01-26T06:20:05.108Z,51.259483
2023-01-26T06:21:05.092Z,51.259537
2023-01-26T06:22:05.088Z,51.259521
2023-01-26T06:23:05.065Z,51.259502
2023-01-26T06:24:05.090Z,51.259521
2023-01-26T06:25:05.053Z,51.259499
2023-01-26T06:26:05.044Z,51.259533
2023-01-26T06:27:05.022Z,51.259502
2023-01-26T06:28:05.032Z,51.259487
2023-01-26T06:29:05.048Z,51.259552
2023-01-26T06:30:05.059Z,51.259563
2023-01-26T06:31:05.103Z,51.259598
2023-01-26T06:32:04.983Z,51.259586
2023-01-26T06:33:05.054Z,51.259499
2023-01-26T06:34:04.987Z,51.259438
2023-01-26T06:35:36.868Z,51.259491
2023-01-26T06:36:05.003Z,51.259567
2023-01-26T06:37:04.927Z,51.259621
2023-01-26T06:38:04.926Z,51.259552
2023-01-26T06:39:04.934Z,51.259537
2023-01-26T06:40:04.905Z,51.259464
2023-01-26T06:41:05.914Z,51.259502
2023-01-26T06:42:04.892Z,51.259480
2023-01-26T06:43:04.882Z,51.259480
2023-01-26T06:44:04.877Z,51.259518
2023-01-26T06:45:04.855Z,51.259571
2023-01-26T06:46:04.899Z,51.259602
2023-01-26T06:47:04.846Z,51.259583
2023-01-26T06:48:04.832Z,51.259529
2023-01-26T06:49:04.833Z,51.259518
2023-01-26T06:50:04.827Z,51.259617
2023-01-26T06:51:04.794Z,51.259617
2023-01-26T06:52:04.804Z,51.259556
2023-01-26T06:53:04.807Z,51.259525
2023-01-26T06:54:04.777Z,51.259430
2023-01-26T06:55:04.774Z,51.259537
2023-01-26T06:56:04.746Z,51.259605
2023-01-26T06:57:04.737Z,51.259651
2023-01-26T06:58:04.715Z,51.259457
2023-01-26T06:59:04.737Z,51.259373
2023-01-26T07:00:04.704Z,51.259491
2023-01-26T07:01:04.756Z,51.259537
2023-01-26T07:02:04.698Z,51.259464
2023-01-26T07:03:04.686Z,51.259445
2023-01-26T07:04:04.726Z,51.259430
2023-01-26T07:05:04.670Z,51.259422
2023-01-26T07:06:04.661Z,51.259361
2023-01-26T07:07:04.633Z,51.259346
2023-01-26T07:08:04.639Z,51.259373
2023-01-26T07:09:04.649Z,51.259480
2023-01-26T07:10:04.600Z,51.259483
2023-01-26T07:11:04.651Z,51.259525
2023-01-26T07:12:04.595Z,51.259552
2023-01-26T07:13:04.586Z,51.259533
2023-01-26T07:14:04.626Z,51.259499
2023-01-26T07:15:04.571Z,51.259441
2023-01-26T07:16:04.624Z,51.259472
2023-01-26T07:17:04.550Z,51.259422
2023-01-26T07:18:04.522Z,51.259567
2023-01-26T07:19:04.544Z,51.259644
2023-01-26T07:20:04.514Z,51.259514
2023-01-26T07:21:04.507Z,51.259445
2023-01-26T07:22:04.496Z,51.259560
2023-01-26T07:23:04.503Z,51.259621
2023-01-26T07:24:04.542Z,51.259613
2023-01-26T07:25:04.467Z,51.259605
2023-01-26T07:26:04.454Z,51.259605
2023-01-26T07:27:04.454Z,51.259609
2023-01-26T07:28:04.446Z,51.259567
2023-01-26T07:29:04.447Z,51.259594
2023-01-26T07:30:04.411Z,51.259624
2023-01-26T07:31:04.423Z,51.259659
2023-01-26T07:32:04.474Z,51.259624
2023-01-26T07:33:04.374Z,51.259533
2023-01-26T07:34:04.389Z,51.259453
2023-01-26T07:35:04.377Z,51.259438
2023-01-26T07:36:04.355Z,51.259495
2023-01-26T07:37:04.356Z,51.259510
2023-01-26T07:38:04.344Z,51.259506
2023-01-26T07:39:06.479Z,51.259563
2023-01-26T07:40:04.352Z,51.259525
2023-01-26T07:41:04.326Z,51.259552
2023-01-26T07:42:04.321Z,51.259575
2023-01-26T07:43:04.294Z,51.259617
2023-01-26T07:44:04.357Z,51.259586
2023-01-26T07:45:04.269Z,51.259632
2023-01-26T07:46:04.419Z,51.259548
2023-01-26T07:47:04.250Z,51.259575
2023-01-26T07:48:04.238Z,51.259621
2023-01-26T07:49:04.239Z,51.259628
2023-01-26T07:50:04.226Z,51.259670
2023-01-26T07:51:04.216Z,51.259651
2023-01-26T07:52:04.837Z,51.259548
2023-01-26T07:53:05.195Z,51.259560
2023-01-26T07:54:04.187Z,51.259563
2023-01-26T07:55:04.170Z,51.259644
2023-01-26T07:56:04.156Z,51.259624
2023-01-26T07:57:04.147Z,51.259483
2023-01-26T07:58:04.130Z,51.259605
2023-01-26T07:59:04.137Z,51.259590
2023-01-26T08:00:04.117Z,51.259678
2023-01-26T08:01:04.123Z,51.259594
2023-01-26T08:02:04.130Z,51.259693
2023-01-26T08:03:04.155Z,51.259613
2023-01-26T08:04:04.109Z,51.259640
2023-01-26T08:05:04.068Z,51.259640
2023-01-26T08:06:04.054Z,51.259624
2023-01-26T08:07:04.058Z,51.259617
2023-01-26T08:08:04.038Z,51.259563
2023-01-26T08:09:04.044Z,51.259636
2023-01-26T08:10:04.023Z,51.259682
2023-01-26T08:11:04.009Z,51.259548
2023-01-26T08:12:03.999Z,51.259567
2023-01-26T08:13:04.050Z,51.259575
2023-01-26T08:14:03.990Z,51.259621
2023-01-26T08:15:03.970Z,51.259663
2023-01-26T08:16:04.055Z,51.259659
2023-01-26T08:17:03.949Z,51.259663
2023-01-26T08:18:03.942Z,51.259838
2023-01-26T08:19:04.022Z,51.259743
2023-01-26T08:20:03.926Z,51.259613
2023-01-26T08:21:03.901Z,51.259590
2023-01-26T08:22:03.899Z,51.259602
2023-01-26T08:23:03.895Z,51.259647
2023-01-26T08:24:03.936Z,51.259544
2023-01-26T08:25:03.873Z,51.259586
2023-01-26T08:26:03.941Z,51.259624
2023-01-26T08:27:03.863Z,51.259556
2023-01-26T08:28:03.833Z,51.259563
2023-01-26T08:29:03.860Z,51.259579
2023-01-26T08:30:03.828Z,51.259647
2023-01-26T08:31:03.841Z,51.259678
2023-01-26T08:32:03.867Z,51.259716
2023-01-26T08:33:03.827Z,51.259739
2023-01-26T08:34:03.793Z,51.259640
2023-01-26T08:35:03.766Z,51.259689
2023-01-26T08:36:03.760Z,51.259544
2023-01-26T08:37:03.754Z,51.259609
2023-01-26T08:38:03.751Z,51.259533
2023-01-26T08:39:03.738Z,51.259586
2023-01-26T08:40:03.729Z,51.259617
2023-01-26T08:41:03.705Z,51.259541
2023-01-26T08:42:03.702Z,51.259579
2023-01-26T08:43:03.682Z,51.259541
2023-01-26T08:44:04.691Z,51.259506
2023-01-26T08:45:03.659Z,51.259579
2023-01-26T08:46:04.527Z,51.259544
2023-01-26T08:47:03.660Z,51.259525
2023-01-26T08:48:03.642Z,51.259617
2023-01-26T08:49:03.647Z,51.259567
2023-01-26T08:50:03.629Z,51.259544
2023-01-26T08:51:03.614Z,51.259556
2023-01-26T08:52:03.635Z,51.259548
2023-01-26T08:53:03.592Z,51.259518
2023-01-26T08:54:03.599Z,51.259453
2023-01-26T08:55:03.570Z,51.259472
2023-01-26T08:56:03.571Z,51.259441
2023-01-26T08:57:03.550Z,51.259495
2023-01-26T08:58:03.541Z,51.259388
2023-01-26T08:59:03.556Z,51.259380
2023-01-26T09:00:03.532Z,51.259312
2023-01-26T09:01:03.521Z,51.259418
2023-01-26T09:02:03.598Z,51.259415
2023-01-26T09:03:03.649Z,51.259483
2023-01-26T09:04:03.499Z,51.259411
2023-01-26T09:05:03.502Z,51.259407
2023-01-26T09:06:03.502Z,51.259567
2023-01-26T09:07:03.463Z,51.259544
2023-01-26T09:08:03.449Z,51.259563
2023-01-26T09:09:03.445Z,51.259602
2023-01-26T09:10:03.421Z,51.259647
2023-01-26T09:11:03.421Z,51.259483
2023-01-26T09:12:03.410Z,51.259487
2023-01-26T09:13:03.391Z,51.259529
2023-01-26T09:14:03.397Z,51.259518
2023-01-26T09:15:03.390Z,51.259560
2023-01-26T09:16:03.362Z,51.259541
2023-01-26T09:17:03.363Z,51.259548
2023-01-26T09:18:03.343Z,51.259518
2023-01-26T09:19:03.348Z,51.259472
2023-01-26T09:20:03.336Z,51.259533
2023-01-26T09:21:03.314Z,51.259426
2023-01-26T09:22:03.310Z,51.259346
2023-01-26T09:23:03.298Z,51.259274
2023-01-26T09:24:03.337Z,51.259396
2023-01-26T09:25:03.264Z,51.259403
2023-01-26T09:26:03.281Z,51.259457
2023-01-26T09:27:03.264Z,51.259441
2023-01-26T09:28:05.475Z,51.259396
2023-01-26T09:29:04.282Z,51.259468
2023-01-26T09:30:03.332Z,51.259480
2023-01-26T09:31:03.312Z,51.259567
2023-01-26T09:32:03.212Z,51.259499
2023-01-26T09:33:03.210Z,51.259495
2023-01-26T09:34:03.186Z,51.259491
2023-01-26T09:35:03.199Z,51.259487
2023-01-26T09:36:03.167Z,51.259468
2023-01-26T09:37:03.158Z,51.259468
2023-01-26T09:38:03.159Z,51.259495
2023-01-26T09:39:03.140Z,51.259438
2023-01-26T09:40:03.137Z,51.259445
2023-01-26T09:41:03.127Z,51.259609
2023-01-26T09:42:03.172Z,51.259567
2023-01-26T09:43:03.118Z,51.259624
2023-01-26T09:44:03.091Z,51.259518
2023-01-26T09:45:03.102Z,51.259487
2023-01-26T09:46:03.124Z,51.259548
2023-01-26T09:47:03.066Z,51.259541
2023-01-26T09:48:03.053Z,51.259598
2023-01-26T09:49:03.051Z,51.259518
2023-01-26T09:50:03.045Z,51.259483
2023-01-26T09:51:03.025Z,51.259483
2023-01-26T09:52:04.011Z,51.259514
2023-01-26T09:53:03.016Z,51.259491
2023-01-26T09:54:03.017Z,51.259514
2023-01-26T09:55:03.026Z,51.259533
2023-01-26T09:56:02.980Z,51.259560
2023-01-26T09:57:02.991Z,51.259521
2023-01-26T09:58:02.978Z,51.259495
2023-01-26T09:59:02.968Z,51.259472
2023-01-26T10:00:02.981Z,51.259575
2023-01-26T10:01:02.986Z,51.259495
2023-01-26T10:02:02.956Z,51.259487
2023-01-26T10:03:03.088Z,51.259499
2023-01-26T10:04:02.905Z,51.259529
2023-01-26T10:05:03.925Z,51.259415
2023-01-26T10:06:02.895Z,51.259346
2023-01-26T10:07:02.890Z,51.259457
2023-01-26T10:08:02.891Z,51.259624
2023-01-26T10:09:02.858Z,51.259598
2023-01-26T10:10:02.865Z,51.259537
2023-01-26T10:11:02.832Z,51.259598
2023-01-26T10:12:03.849Z,51.259510
2023-01-26T10:13:02.842Z,51.259308
2023-01-26T10:14:02.820Z,51.259365
2023-01-26T10:15:02.841Z,51.259457
2023-01-26T10:16:02.803Z,51.259518
2023-01-26T10:17:02.797Z,51.259590
2023-01-26T10:18:02.788Z,51.259525
2023-01-26T10:19:02.769Z,51.259468
2023-01-26T10:20:02.778Z,51.259567
2023-01-26T10:21:02.757Z,51.259602
2023-01-26T10:22:02.756Z,51.259541
2023-01-26T10:23:02.751Z,51.259571
2023-01-26T10:24:02.731Z,51.259575
2023-01-26T10:25:02.767Z,51.259541
2023-01-26T10:26:02.714Z,51.259491
2023-01-26T10:27:02.701Z,51.259560
2023-01-26T10:28:02.687Z,51.259521
2023-01-26T10:29:02.701Z,51.259491
2023-01-26T10:30:02.740Z,51.259514
2023-01-26T10:31:02.737Z,51.259579
2023-01-26T10:32:02.656Z,51.259628
2023-01-26T10:33:02.656Z,51.259605
2023-01-26T10:34:02.648Z,51.259499
2023-01-26T10:35:02.657Z,51.259537
2023-01-26T10:36:02.631Z,51.259525
2023-01-26T10:37:02.630Z,51.259567
2023-01-26T10:38:02.623Z,51.259483
2023-01-26T10:39:02.603Z,51.259510
2023-01-26T10:40:02.617Z,51.259514
2023-01-26T10:41:02.607Z,51.259521
2023-01-26T10:42:02.612Z,51.259476
2023-01-26T10:43:02.569Z,51.259426
2023-01-26T10:44:02.588Z,51.259499
2023-01-26T10:45:02.563Z,51.259480
2023-01-26T10:46:02.587Z,51.259464
2023-01-26T10:47:02.523Z,51.259487
2023-01-26T10:48:02.507Z,51.259499
2023-01-26T10:49:02.508Z,51.259514
2023-01-26T10:50:02.520Z,51.259506
2023-01-26T10:51:02.562Z,51.259556
2023-01-26T10:52:03.477Z,51.259548
2023-01-26T10:53:02.527Z,51.259609
2023-01-26T10:54:02.474Z,51.259598
2023-01-26T10:55:02.477Z,51.259556
2023-01-26T10:56:02.451Z,51.259563
2023-01-26T10:57:02.463Z,51.259514
2023-01-26T10:58:02.427Z,51.259556
2023-01-26T10:59:02.412Z,51.259510
2023-01-26T11:00:02.429Z,51.259480
2023-01-26T11:01:02.403Z,51.259502
2023-01-26T11:02:02.394Z,51.259521
2023-01-26T11:03:02.402Z,51.259510
2023-01-26T11:04:02.384Z,51.259502
2023-01-26T11:05:02.389Z,51.259548
2023-01-26T11:06:02.420Z,51.259480
2023-01-26T11:07:02.347Z,51.259373
2023-01-26T11:08:02.382Z,51.259453
2023-01-26T11:09:02.328Z,51.259415
2023-01-26T11:10:02.340Z,51.259472
2023-01-26T11:11:02.315Z,51.259407
2023-01-26T11:12:02.301Z,51.259430
2023-01-26T11:13:02.288Z,51.259525
2023-01-26T11:14:02.276Z,51.259499
2023-01-26T11:15:02.296Z,51.259312
2023-01-26T11:16:02.329Z,51.259480
2023-01-26T11:17:02.264Z,51.259502
2023-01-26T11:18:02.253Z,51.259541
2023-01-26T11:19:02.241Z,51.259533
2023-01-26T11:20:02.256Z,51.259480
2023-01-26T11:21:02.226Z,51.259449
2023-01-26T11:22:02.223Z,51.259464
2023-01-26T11:23:02.204Z,51.259506
2023-01-26T11:24:02.241Z,51.259579